createdAt,value
2022-09-27T00:01:15.304Z,2.35
2022-09-27T00:03:42.562Z,4.00
2022-09-27T00:06:19.020Z,6.97
2022-09-27T00:08:45.784Z,3.67
2022-09-27T00:11:28.184Z,3.03
2022-09-27T00:13:57.240Z,3.60
2022-09-27T00:16:27.619Z,4.45
2022-09-27T00:19:03.980Z,3.28
2022-09-27T00:21:31.998Z,2.40
2022-09-27T00:23:59.992Z,3.90
2022-09-27T00:26:27.833Z,3.35
2022-09-27T00:28:55.008Z,2.95
2022-09-27T00:31:32.234Z,3.90
2022-09-27T00:34:03.427Z,3.50
2022-09-27T00:36:31.100Z,3.50
2022-09-27T00:38:59.902Z,1.33
2022-09-27T00:41:32.710Z,2.20
2022-09-27T00:44:04.704Z,2.40
2022-09-27T00:46:42.350Z,2.85
2022-09-27T00:49:19.096Z,2.80
2022-09-27T00:51:53.464Z,3.55
2022-09-27T00:54:24.925Z,2.65
2022-09-27T00:56:53.121Z,2.17
2022-09-27T00:59:28.586Z,2.58
2022-09-27T01:01:56.011Z,4.00
2022-09-27T01:04:26.960Z,3.33
2022-09-27T01:06:54.748Z,3.15
2022-09-27T01:09:22.921Z,3.75
2022-09-27T01:12:26.878Z,3.33
2022-09-27T01:15:08.745Z,1.67
2022-09-27T01:17:44.192Z,2.42
2022-09-27T01:20:52.232Z,3.95
2022-09-27T01:23:57.931Z,3.88
2022-09-27T01:27:14.619Z,4.95
2022-09-27T01:30:33.715Z,3.25
2022-09-27T01:33:24.731Z,2.05
2022-09-27T01:36:23.109Z,3.20
2022-09-27T01:39:10.790Z,2.88
2022-09-27T01:42:29.303Z,4.68
2022-09-27T01:45:09.356Z,2.08
2022-09-27T01:47:56.679Z,5.95
2022-09-27T01:50:49.792Z,4.80
2022-09-27T01:53:32.203Z,3.80
2022-09-27T01:56:35.901Z,3.70
2022-09-27T01:59:25.976Z,5.38
2022-09-27T02:02:08.939Z,2.65
2022-09-27T02:05:05.211Z,4.78
2022-09-27T02:07:48.552Z,2.22
2022-09-27T02:10:24.421Z,3.65
2022-09-27T02:13:21.174Z,2.38
2022-09-27T02:16:05.502Z,2.78
2022-09-27T02:19:04.393Z,2.75
2022-09-27T02:21:52.945Z,4.05
2022-09-27T02:24:30.075Z,4.80
2022-09-27T02:27:12.095Z,3.45
2022-09-27T02:29:51.302Z,6.60
2022-09-27T02:32:18.489Z,6.75
2022-09-27T02:34:48.818Z,2.47
2022-09-27T02:37:16.116Z,2.03
2022-09-27T02:39:43.515Z,2.83
2022-09-27T02:42:10.725Z,4.30
2022-09-27T02:44:40.741Z,1.75
2022-09-27T02:47:44.726Z,3.17
2022-09-27T02:50:43.415Z,3.03
2022-09-27T02:53:48.040Z,3.38
2022-09-27T02:57:17.150Z,5.97
2022-09-27T03:00:19.625Z,8.82
2022-09-27T03:03:08.648Z,5.55
2022-09-27T03:06:05.840Z,6.22
2022-09-27T03:08:32.952Z,5.00
2022-09-27T03:11:00.016Z,6.53
2022-09-27T03:13:27.783Z,3.58
2022-09-27T03:16:01.264Z,6.18
2022-09-27T03:18:50.237Z,6.97
2022-09-27T03:21:17.037Z,6.28
2022-09-27T03:23:43.881Z,5.30
2022-09-27T03:26:12.985Z,7.72
2022-09-27T03:28:40.261Z,4.68
2022-09-27T03:31:07.125Z,3.30
2022-09-27T03:33:55.439Z,7.95
2022-09-27T03:36:22.783Z,6.75
2022-09-27T03:38:49.564Z,5.43
2022-09-27T03:41:18.716Z,7.93
2022-09-27T03:43:45.579Z,7.97
2022-09-27T03:46:12.684Z,8.60
2022-09-27T03:48:39.629Z,6.40
2022-09-27T03:51:06.583Z,8.82
2022-09-27T03:53:33.779Z,6.93
2022-09-27T03:56:00.767Z,5.10
2022-09-27T03:58:27.614Z,7.45
2022-09-27T04:00:54.644Z,3.35
2022-09-27T04:03:21.851Z,6.00
2022-09-27T04:06:07.667Z,9.02
2022-09-27T04:08:38.601Z,6.50
2022-09-27T04:11:07.025Z,5.75
2022-09-27T04:13:35.140Z,7.18
2022-09-27T04:16:02.852Z,6.63
2022-09-27T04:18:59.377Z,8.13
2022-09-27T04:21:38.163Z,2.17
2022-09-27T04:24:06.876Z,5.22
2022-09-27T04:26:34.667Z,4.22
2022-09-27T04:29:03.776Z,4.45
2022-09-27T04:31:32.448Z,6.30
2022-09-27T04:34:17.868Z,10.27
2022-09-27T04:36:44.708Z,5.70
2022-09-27T04:39:18.850Z,6.68
2022-09-27T04:41:47.079Z,4.63
2022-09-27T04:44:13.893Z,2.40
2022-09-27T04:46:44.328Z,6.65
2022-09-27T04:49:12.156Z,5.30
2022-09-27T04:51:39.276Z,6.75
2022-09-27T04:54:06.324Z,3.75
2022-09-27T04:56:36.787Z,2.95
2022-09-27T04:59:09.852Z,4.28
2022-09-27T05:01:37.611Z,4.47
2022-09-27T05:04:07.472Z,6.90
2022-09-27T05:06:37.305Z,5.72
2022-09-27T05:09:18.633Z,4.65
2022-09-27T05:11:54.454Z,3.25
2022-09-27T05:14:44.533Z,3.55
2022-09-27T05:17:24.294Z,3.17
2022-09-27T05:20:10.708Z,5.10
2022-09-27T05:22:58.238Z,5.63
2022-09-27T05:25:25.143Z,4.82
2022-09-27T05:27:52.517Z,3.72
2022-09-27T05:30:20.120Z,6.20
2022-09-27T05:32:52.888Z,6.85
2022-09-27T05:35:26.084Z,4.30
2022-09-27T05:38:00.210Z,3.17
2022-09-27T05:40:40.976Z,3.17
2022-09-27T05:43:09.593Z,6.72
2022-09-27T05:45:36.918Z,3.05
2022-09-27T05:48:06.432Z,6.35
2022-09-27T05:50:38.623Z,5.28
2022-09-27T05:53:06.492Z,3.80
2022-09-27T05:55:33.382Z,3.75
2022-09-27T05:58:04.624Z,4.25
2022-09-27T06:00:41.612Z,2.63
2022-09-27T06:03:28.346Z,2.67
2022-09-27T06:06:27.440Z,6.20
2022-09-27T06:08:57.462Z,4.53
2022-09-27T06:11:27.469Z,5.03
2022-09-27T06:13:54.492Z,3.38
2022-09-27T06:16:21.754Z,2.80
2022-09-27T06:18:48.605Z,6.30
2022-09-27T06:21:16.381Z,5.43
2022-09-27T06:23:54.173Z,4.30
2022-09-27T06:26:27.403Z,3.83
2022-09-27T06:29:12.871Z,4.03
2022-09-27T06:31:46.500Z,2.50
2022-09-27T06:34:28.990Z,2.47
2022-09-27T06:36:57.379Z,4.78
2022-09-27T06:39:28.863Z,5.65
2022-09-27T06:42:14.144Z,4.38
2022-09-27T06:44:59.647Z,5.63
2022-09-27T06:47:46.734Z,2.90
2022-09-27T06:50:39.392Z,4.72
2022-09-27T06:53:09.228Z,4.43
2022-09-27T06:55:36.880Z,2.28
2022-09-27T06:58:23.905Z,2.47
2022-09-27T07:01:20.471Z,2.58
2022-09-27T07:04:07.292Z,4.13
2022-09-27T07:06:49.501Z,2.88
2022-09-27T07:09:22.203Z,5.78
2022-09-27T07:11:49.417Z,3.20
2022-09-27T07:14:17.324Z,5.50
2022-09-27T07:16:45.603Z,2.53
2022-09-27T07:19:14.297Z,4.78
2022-09-27T07:21:41.553Z,4.38
2022-09-27T07:24:08.405Z,5.50
2022-09-27T07:26:35.185Z,3.75
2022-09-27T07:29:04.536Z,7.18
2022-09-27T07:31:31.695Z,3.97
2022-09-27T07:33:59.138Z,3.33
2022-09-27T07:36:26.015Z,5.55
2022-09-27T07:38:53.268Z,3.15
2022-09-27T07:41:20.774Z,4.30
2022-09-27T07:43:47.651Z,4.70
2022-09-27T07:46:15.262Z,3.30
2022-09-27T07:49:00.399Z,5.10
2022-09-27T07:51:56.667Z,4.53
2022-09-27T07:54:49.829Z,4.70
2022-09-27T07:57:28.520Z,4.60
2022-09-27T07:59:57.701Z,4.47
2022-09-27T08:02:24.869Z,5.55
2022-09-27T08:04:53.136Z,5.88
2022-09-27T08:07:19.968Z,3.55
2022-09-27T08:09:50.951Z,4.07
2022-09-27T08:12:18.236Z,5.40
2022-09-27T08:14:48.301Z,1.73
2022-09-27T08:17:17.347Z,6.25
2022-09-27T08:20:06.313Z,5.63
2022-09-27T08:23:05.208Z,4.93
2022-09-27T08:25:36.385Z,4.38
2022-09-27T08:28:06.645Z,7.53
2022-09-27T08:30:47.339Z,8.85
2022-09-27T08:33:14.197Z,5.65
2022-09-27T08:35:41.041Z,5.57
2022-09-27T08:38:09.916Z,5.75
2022-09-27T08:40:54.452Z,5.05
2022-09-27T08:43:49.795Z,5.35
2022-09-27T08:46:55.761Z,6.10
2022-09-27T08:49:36.282Z,3.42
2022-09-27T08:52:13.000Z,4.60
2022-09-27T08:54:40.383Z,2.25
2022-09-27T08:57:12.820Z,3.70
2022-09-27T08:59:48.760Z,4.38
2022-09-27T09:02:26.269Z,4.47
2022-09-27T09:05:08.032Z,5.22
2022-09-27T09:08:03.249Z,4.18
2022-09-27T09:11:49.909Z,3.22
2022-09-27T09:14:43.968Z,5.72
2022-09-27T09:17:19.606Z,4.45
2022-09-27T09:20:16.970Z,2.13
2022-09-27T09:23:54.952Z,4.63
2022-09-27T09:27:14.663Z,0.90
2022-09-27T09:30:09.198Z,4.07
2022-09-27T09:33:10.261Z,3.72
2022-09-27T09:35:58.758Z,2.25
2022-09-27T09:38:53.473Z,3.85
2022-09-27T09:41:41.528Z,2.70
2022-09-27T09:44:24.759Z,4.05
2022-09-27T09:46:58.616Z,2.97
2022-09-27T09:49:44.043Z,1.02
2022-09-27T09:52:18.532Z,3.45
2022-09-27T09:54:50.464Z,5.10
2022-09-27T09:57:30.826Z,6.18
2022-09-27T10:00:05.347Z,1.95
2022-09-27T10:02:46.520Z,4.70
2022-09-27T10:05:25.831Z,2.78
2022-09-27T10:08:11.205Z,2.30
2022-09-27T10:10:40.076Z,5.70
2022-09-27T10:13:25.692Z,3.33
2022-09-27T10:16:11.150Z,1.95
2022-09-27T10:18:44.049Z,3.13
2022-09-27T10:21:25.607Z,3.55
2022-09-27T10:24:04.397Z,3.50
2022-09-27T10:26:51.605Z,4.07
2022-09-27T10:29:37.047Z,2.97
2022-09-27T10:32:22.084Z,2.95
2022-09-27T10:34:51.143Z,4.70
2022-09-27T10:37:23.542Z,3.67
2022-09-27T10:39:59.290Z,3.55
2022-09-27T10:42:37.769Z,2.55
2022-09-27T10:45:31.811Z,3.58
2022-09-27T10:48:24.599Z,3.55
2022-09-27T10:51:07.544Z,3.85
2022-09-27T10:53:48.304Z,2.92
2022-09-27T10:56:32.527Z,1.25
2022-09-27T10:59:02.888Z,3.33
2022-09-27T11:01:46.040Z,3.72
2022-09-27T11:04:31.608Z,4.68
2022-09-27T11:07:13.438Z,2.88
2022-09-27T11:09:54.840Z,5.65
2022-09-27T11:12:25.112Z,1.88
2022-09-27T11:15:19.051Z,5.78
2022-09-27T11:18:10.139Z,3.22
2022-09-27T11:20:54.328Z,4.75
2022-09-27T11:23:26.804Z,1.90
2022-09-27T11:26:45.229Z,4.30
2022-09-27T11:29:35.930Z,1.65
2022-09-27T11:33:08.035Z,1.55
2022-09-27T11:36:18.022Z,2.60
2022-09-27T11:39:09.501Z,3.47
2022-09-27T11:42:02.756Z,2.83
2022-09-27T11:48:11.656Z,4.28
2022-09-27T11:50:53.678Z,1.27
2022-09-27T11:54:10.195Z,1.25
2022-09-27T11:57:06.247Z,1.85
2022-09-27T12:00:10.472Z,2.60
2022-09-27T12:03:04.551Z,1.75
2022-09-27T12:05:43.773Z,2.22
2022-09-27T12:08:36.909Z,1.85
2022-09-27T12:11:25.289Z,2.65
2022-09-27T12:14:06.810Z,2.15
2022-09-27T12:16:38.740Z,2.63
2022-09-27T12:19:19.436Z,2.20
2022-09-27T12:21:54.725Z,3.90
2022-09-27T12:24:25.144Z,6.60
2022-09-27T12:27:07.801Z,2.42
2022-09-27T12:29:41.244Z,3.17
2022-09-27T12:32:20.480Z,3.58
2022-09-27T12:34:59.275Z,2.72
2022-09-27T12:37:35.866Z,2.88
2022-09-27T12:40:20.285Z,1.98
2022-09-27T12:43:00.555Z,5.78
2022-09-27T12:46:25.005Z,2.67
2022-09-27T12:49:25.303Z,2.97
2022-09-27T12:52:03.705Z,3.38
2022-09-27T12:55:26.250Z,2.25
2022-09-27T12:58:29.588Z,2.38
2022-09-27T13:01:21.367Z,2.40
2022-09-27T13:04:02.636Z,1.83
2022-09-27T13:06:56.798Z,4.18
2022-09-27T13:09:53.771Z,3.40
2022-09-27T13:12:26.296Z,9.75
2022-09-27T13:15:06.503Z,2.90
2022-09-27T13:17:44.693Z,2.47
2022-09-27T13:20:30.950Z,2.58
2022-09-27T13:23:00.731Z,1.92
2022-09-27T13:26:03.488Z,2.53
2022-09-27T13:29:03.073Z,3.25
2022-09-27T13:31:54.311Z,1.55
2022-09-27T13:34:43.323Z,2.33
2022-09-27T13:37:29.224Z,4.53
2022-09-27T13:40:20.961Z,2.58
2022-09-27T13:43:13.212Z,2.45
2022-09-27T13:46:15.720Z,2.35
2022-09-27T13:49:20.780Z,3.13
2022-09-27T13:52:35.758Z,2.10
2022-09-27T13:55:49.631Z,2.42
2022-09-27T13:59:00.399Z,2.55
2022-09-27T14:02:43.864Z,2.53
2022-09-27T14:05:20.618Z,2.15
2022-09-27T14:07:51.978Z,2.35
2022-09-27T14:10:23.109Z,3.15
2022-09-27T14:12:53.475Z,3.58
2022-09-27T14:15:28.561Z,3.25
2022-09-27T14:17:58.918Z,3.53
2022-09-27T14:20:53.101Z,1.95
2022-09-27T14:23:45.629Z,1.35
2022-09-27T14:26:26.956Z,4.40
2022-09-27T14:28:54.238Z,3.95
2022-09-27T14:31:26.901Z,2.17
2022-09-27T14:34:20.044Z,4.10
2022-09-27T14:37:07.700Z,2.97
2022-09-27T14:39:53.360Z,1.55
2022-09-27T14:42:36.232Z,2.42
2022-09-27T14:45:36.171Z,2.63
2022-09-27T14:48:21.609Z,1.75
2022-09-27T14:51:05.041Z,4.07
2022-09-27T14:53:45.388Z,3.85
2022-09-27T14:56:22.685Z,2.35
2022-09-27T14:59:02.278Z,1.42
2022-09-27T15:01:30.518Z,2.40
2022-09-27T15:04:08.319Z,3.78
2022-09-27T15:06:38.922Z,1.65
2022-09-27T15:09:10.129Z,1.25
2022-09-27T15:11:41.354Z,2.05
2022-09-27T15:14:17.233Z,2.08
2022-09-27T15:16:48.425Z,4.22
2022-09-27T15:19:26.947Z,2.10
2022-09-27T15:21:57.275Z,3.47
2022-09-27T15:24:47.456Z,2.58
2022-09-27T15:27:22.711Z,4.45
2022-09-27T15:29:56.406Z,3.53
2022-09-27T15:32:26.828Z,3.17
2022-09-27T15:34:56.018Z,1.50
2022-09-27T15:37:43.525Z,2.30
2022-09-27T15:40:16.473Z,4.38
2022-09-27T15:43:02.438Z,4.15
2022-09-27T15:45:35.975Z,4.97
2022-09-27T15:48:13.760Z,3.33
2022-09-27T15:50:41.563Z,2.88
2022-09-27T15:53:10.895Z,3.17
2022-09-27T15:55:45.251Z,2.95
2022-09-27T15:58:21.199Z,3.30
2022-09-27T16:00:57.718Z,5.43
2022-09-27T16:03:26.814Z,5.38
2022-09-27T16:05:56.880Z,4.10
2022-09-27T16:08:25.182Z,2.28
2022-09-27T16:10:58.797Z,3.50
2022-09-27T16:13:32.369Z,4.22
2022-09-27T16:16:02.268Z,7.97
2022-09-27T16:18:30.875Z,4.10
2022-09-27T16:20:59.407Z,6.07
2022-09-27T16:23:26.312Z,3.28
2022-09-27T16:25:53.788Z,6.18
2022-09-27T16:28:21.003Z,5.15
2022-09-27T16:30:48.009Z,6.50
2022-09-27T16:33:15.165Z,7.32
2022-09-27T16:35:42.104Z,4.68
2022-09-27T16:38:09.969Z,4.75
2022-09-27T16:40:38.031Z,6.93
2022-09-27T16:43:07.316Z,6.32
2022-09-27T16:45:36.180Z,4.88
2022-09-27T16:48:03.267Z,8.05
2022-09-27T16:50:48.769Z,5.25
2022-09-27T16:53:15.973Z,6.88
2022-09-27T16:55:42.807Z,5.20
2022-09-27T16:58:09.563Z,8.27
2022-09-27T17:00:36.402Z,7.13
2022-09-27T17:03:03.645Z,7.70
2022-09-27T17:05:31.631Z,7.63
2022-09-27T17:07:58.700Z,7.30
2022-09-27T17:10:25.606Z,8.82
2022-09-27T17:12:52.421Z,6.20
2022-09-27T17:15:19.394Z,10.75
2022-09-27T17:17:50.099Z,7.18
2022-09-27T17:20:17.567Z,5.03
2022-09-27T17:22:44.454Z,6.32
2022-09-27T17:25:11.638Z,7.88
2022-09-27T17:27:38.743Z,7.70
2022-09-27T17:30:06.892Z,7.13
2022-09-27T17:32:34.771Z,8.20
2022-09-27T17:35:02.518Z,6.82
2022-09-27T17:37:29.916Z,7.22
2022-09-27T17:39:57.513Z,7.78
2022-09-27T17:42:25.245Z,10.57
2022-09-27T17:44:52.190Z,6.32
2022-09-27T17:47:37.400Z,10.60
2022-09-27T17:50:23.035Z,14.63
2022-09-27T17:52:50.312Z,12.18
2022-09-27T17:55:17.167Z,4.47
2022-09-27T17:57:47.309Z,8.95
2022-09-27T18:00:14.642Z,8.63
2022-09-27T18:02:42.090Z,5.72
2022-09-27T18:05:09.765Z,6.75
2022-09-27T18:07:37.372Z,7.00
2022-09-27T18:10:05.234Z,8.63
2022-09-27T18:12:32.879Z,10.73
2022-09-27T18:14:59.660Z,4.38
2022-09-27T18:17:27.736Z,4.70
2022-09-27T18:19:56.869Z,3.28
2022-09-27T18:22:26.345Z,3.65
2022-09-27T18:24:53.180Z,4.88
2022-09-27T18:27:20.159Z,4.25
2022-09-27T18:29:47.084Z,7.82
2022-09-27T18:32:14.048Z,7.95
2022-09-27T18:34:40.923Z,4.45
2022-09-27T18:37:07.861Z,6.38
2022-09-27T18:39:34.627Z,8.05
2022-09-27T18:42:01.472Z,7.20
2022-09-27T18:44:28.260Z,6.57
2022-09-27T18:46:55.192Z,3.85
2022-09-27T18:49:25.734Z,7.90
2022-09-27T18:51:53.940Z,6.50
2022-09-27T18:54:22.590Z,5.85
2022-09-27T18:56:52.131Z,3.78
2022-09-27T18:59:21.306Z,6.95
2022-09-27T19:01:48.185Z,5.90
2022-09-27T19:04:24.088Z,4.78
2022-09-27T19:06:55.705Z,3.75
2022-09-27T19:09:22.964Z,7.13
2022-09-27T19:11:49.821Z,14.88
2022-09-27T19:14:22.342Z,20.23
2022-09-27T19:16:50.272Z,9.15
2022-09-27T19:19:19.466Z,8.50
2022-09-27T19:21:46.822Z,15.73
2022-09-27T19:24:15.130Z,11.98
2022-09-27T19:26:42.560Z,5.80
2022-09-27T19:29:10.317Z,5.65
2022-09-27T19:31:37.391Z,4.40
2022-09-27T19:34:04.835Z,7.28
2022-09-27T19:36:31.806Z,9.35
2022-09-27T19:38:59.030Z,14.20
2022-09-27T19:41:26.884Z,13.57
2022-09-27T19:43:55.626Z,7.13
2022-09-27T19:46:24.553Z,5.18
2022-09-27T19:48:52.711Z,7.97
2022-09-27T19:51:26.045Z,7.25
2022-09-27T19:53:54.343Z,8.02
2022-09-27T19:56:22.807Z,12.02
2022-09-27T19:58:50.217Z,7.28
2022-09-27T20:01:23.856Z,10.55
2022-09-27T20:03:53.439Z,8.25
2022-09-27T20:06:21.652Z,8.35
2022-09-27T20:08:49.088Z,6.72
2022-09-27T20:11:19.499Z,6.47
2022-09-27T20:13:46.865Z,7.60
2022-09-27T20:16:18.292Z,8.85
2022-09-27T20:18:48.596Z,5.82
2022-09-27T20:21:17.325Z,5.78
2022-09-27T20:23:47.916Z,7.25
2022-09-27T20:26:17.098Z,6.43
2022-09-27T20:28:49.928Z,6.07
2022-09-27T20:31:20.875Z,6.28
2022-09-27T20:33:50.717Z,7.28
2022-09-27T20:36:26.292Z,11.23
2022-09-27T20:39:03.150Z,9.20
2022-09-27T20:41:34.358Z,11.35
2022-09-27T20:44:05.585Z,11.32
2022-09-27T20:46:34.171Z,10.40
2022-09-27T20:49:05.372Z,8.50
2022-09-27T20:51:34.842Z,9.43
2022-09-27T20:54:04.152Z,7.97
2022-09-27T20:56:34.453Z,6.95
2022-09-27T20:59:05.922Z,7.05
2022-09-27T21:01:33.737Z,7.25
2022-09-27T21:04:05.171Z,7.28
2022-09-27T21:06:33.032Z,7.25
2022-09-27T21:09:03.380Z,7.45
2022-09-27T21:11:30.207Z,11.73
2022-09-27T21:13:57.268Z,5.72
2022-09-27T21:16:27.806Z,8.30
2022-09-27T21:18:56.844Z,6.85
2022-09-27T21:21:25.287Z,7.18
2022-09-27T21:23:59.127Z,3.85
2022-09-27T21:26:31.351Z,5.28
2022-09-27T21:29:01.263Z,4.22
2022-09-27T21:31:32.441Z,5.72
2022-09-27T21:34:04.470Z,4.63
2022-09-27T21:36:38.883Z,5.93
2022-09-27T21:39:08.718Z,7.03
2022-09-27T21:41:36.758Z,4.32
2022-09-27T21:44:05.705Z,6.00
2022-09-27T21:46:32.849Z,4.47
2022-09-27T21:49:04.514Z,8.80
2022-09-27T21:51:41.152Z,3.80
2022-09-27T21:54:13.547Z,4.15
2022-09-27T21:56:41.785Z,5.30
2022-09-27T21:59:14.508Z,4.93
2022-09-27T22:01:45.140Z,5.57
2022-09-27T22:04:12.859Z,6.20
2022-09-27T22:06:40.576Z,5.15
2022-09-27T22:09:13.579Z,5.20
2022-09-27T22:11:46.156Z,6.35
2022-09-27T22:14:15.966Z,5.00
2022-09-27T22:16:42.955Z,4.28
2022-09-27T22:19:12.761Z,4.00
2022-09-27T22:21:40.868Z,5.63
2022-09-27T22:24:17.167Z,4.72
2022-09-27T22:26:50.697Z,5.55
2022-09-27T22:29:17.861Z,4.65
2022-09-27T22:31:45.048Z,3.97
2022-09-27T22:34:28.519Z,5.30
2022-09-27T22:37:00.673Z,3.80
2022-09-27T22:39:28.791Z,4.68
2022-09-27T22:41:55.559Z,3.95
2022-09-27T22:44:22.751Z,5.25
2022-09-27T22:46:49.535Z,3.30
2022-09-27T22:49:16.434Z,2.85
2022-09-27T22:51:43.620Z,5.85
2022-09-27T22:54:10.448Z,4.38
2022-09-27T22:56:37.180Z,4.18
2022-09-27T22:59:04.097Z,4.93
2022-09-27T23:01:31.589Z,4.03
2022-09-27T23:03:59.042Z,4.35
2022-09-27T23:06:25.996Z,3.67
2022-09-27T23:08:53.522Z,3.85
2022-09-27T23:11:22.643Z,5.55
2022-09-27T23:13:51.361Z,3.67
2022-09-27T23:16:25.458Z,4.97
2022-09-27T23:18:55.108Z,4.93
2022-09-27T23:21:24.536Z,4.20
2022-09-27T23:23:54.937Z,6.00
2022-09-27T23:26:25.877Z,4.70
2022-09-27T23:28:59.501Z,3.03
2022-09-27T23:31:29.825Z,3.42
2022-09-27T23:34:01.345Z,6.50
2022-09-27T23:36:28.283Z,3.42
2022-09-27T23:38:59.136Z,2.85
2022-09-27T23:41:26.162Z,4.82
2022-09-27T23:43:54.113Z,3.28
2022-09-27T23:46:21.207Z,2.65
2022-09-27T23:48:48.241Z,3.15
2022-09-27T23:51:15.004Z,4.60
2022-09-27T23:53:41.848Z,3.70
2022-09-27T23:56:17.017Z,4.55
2022-09-27T23:58:46.308Z,2.85
